Terminal Aerodrome Forecast
Issued by NWS

Home | Current Version | Previous Version | Text Only | Print | Product List | Glossary On
Versions: 1 2 3 4 5 6 7 8 9 10 11 12 13 14 15
000
FTUS44 KTSA 251700
TAFXNA
TAF
KXNA 251737Z 2518/2618 19018G26KT P6SM SCT250
     FM260000 18015KT P6SM BKN250
     FM260900 18012KT P6SM BKN025 BKN200 WS020/21045KT
     FM261300 17011KT P6SM BKN015=

USA.gov is the U.S. government's official web portal to all federal, state and local government web resources and services.